^^
Datos históricos de la estación: Murcia-Puente Tocinos
Diario Informe para Noviembre 11, 2019 Unidades:  Ingés    Métrico   Ambas
Diario Semanal Mensual Anual
  Máxima: Mínima: Promedio:
Temperatura: 64.4 °F 51.8 °F 57.9 °F
Punto de rocio: 44.4 °F 33.4 °F 37.9 °F
Humedad: 56% 38.8% 48%
Velocidad viento: 17.8mph 2.4mph 9.3mph
Racha viento: 32.4mph - -
Viento- - Oeste
Presión: 30 in 29.8 in -
Precipitación: 0 in    
 
 
Tabla de datos para Noviembre 11, 2019
Hora Temperatura Punto de rocio Presión Viento Velocidad viento Racha viento Humedad Intensidad lluvia(por hora) Nubes
00:04 54.7 °F 36.3 °F 29.9 in NO 4.6 mph 9.2 mph 50% 0 in
00:09 54.7 °F 36.3 °F 29.9 in NE 4.7 mph 10.4 mph 50% 0 in
00:14 54.7 °F 36.3 °F 29.9 in Este 5.1 mph 12 mph 50% 0 in
00:19 54.7 °F 36.3 °F 29.9 in NNE 5.2 mph 13 mph 50% 0 in
00:24 54.7 °F 36.3 °F 30 in ENE 5.3 mph 13 mph 50% 0 in
00:29 54.7 °F 36.3 °F 30 in ENE 5.4 mph 9 mph 50% 0 in
00:34 54.3 °F 36.1 °F 30 in Este 2.9 mph 5.9 mph 50.1% 0 in
00:39 54.1 °F 36.1 °F 30 in ESE 2.4 mph 8.1 mph 50.4% 0 in
00:44 54.1 °F 36 °F 30 in SE 4 mph 9.2 mph 50% 0 in
00:49 54.1 °F 35.6 °F 30 in Sur 4.3 mph 9 mph 49.5% 0 in
00:54 54.1 °F 35.4 °F 30 in SE 5 mph 9 mph 49% 0 in
00:59 54.3 °F 35.4 °F 30 in SE 5.2 mph 9.7 mph 49% 0 in
01:04 54.3 °F 35.4 °F 30 in SSE 5.3 mph 10 mph 48.8% 0 in
01:09 54.1 °F 35.4 °F 30 in SSE 5.4 mph 10.4 mph 48.9% 0 in
01:14 54.1 °F 34.9 °F 30 in Sur 5.8 mph 13 mph 48% 0 in
01:19 54.1 °F 34.9 °F 30 in Sur 5.9 mph 15 mph 48% 0 in
01:24 54.1 °F 34.9 °F 30 in ONO 7.1 mph 15 mph 48% 0 in
01:29 54.1 °F 34.7 °F 30 in Sur 7.4 mph 9.2 mph 47.6% 0 in
01:34 54 °F 34.7 °F 30 in SE 4.8 mph 9 mph 47.8% 0 in
01:39 54 °F 34.7 °F 30 in SSE 4.3 mph 7.6 mph 48% 0 in
01:44 53.8 °F 34.5 °F 30 in SSE 4.3 mph 10.7 mph 48% 0 in
01:49 53.8 °F 34.2 °F 30 in Sur 4.3 mph 11.5 mph 47.2% 0 in
01:54 53.8 °F 34 °F 30 in SE 5.9 mph 13.7 mph 47% 0 in
01:59 54 °F 34.2 °F 30 in SSE 6.2 mph 14 mph 46.9% 0 in
02:04 54 °F 34.2 °F 30 in SO 6.2 mph 14 mph 47% 0 in
02:09 53.8 °F 34 °F 30 in SO 6.2 mph 13 mph 47% 0 in
02:14 53.8 °F 34 °F 30 in NO 4.3 mph 6.9 mph 47% 0 in
02:19 53.4 °F 33.8 °F 30 in Oeste 4 mph 9.2 mph 47% 0 in
02:24 53.2 °F 33.6 °F 30 in ONO 4.6 mph 11.5 mph 47.3% 0 in
02:29 53.1 °F 34 °F 30 in Oeste 4.7 mph 12 mph 48% 0 in
02:34 53.1 °F 33.8 °F 30 in Oeste 6.2 mph 16.1 mph 48% 0 in
02:39 52.9 °F 33.6 °F 30 in Oeste 6.4 mph 16 mph 48% 0 in
02:44 52.5 °F 33.4 °F 30 in ONO 6.8 mph 11.8 mph 48% 0 in
02:49 52.5 °F 33.4 °F 30 in ONO 6.9 mph 12.7 mph 48.1% 0 in
02:54 52.5 °F 33.6 °F 30 in ONO 6.9 mph 21.3 mph 48.6% 0 in
02:59 52.3 °F 33.6 °F 30 in ONO 6.9 mph 21 mph 49% 0 in
03:04 52.5 °F 34 °F 30 in ONO 9.8 mph 26.8 mph 49% 0 in
03:09 52.9 °F 34.2 °F 30 in ONO 10.2 mph 27 mph 49% 0 in
03:14 52.9 °F 34.2 °F 30 in ONO 13.1 mph 27.5 mph 49% 0 in
03:19 52.9 °F 34.3 °F 30 in ONO 13.7 mph 27 mph 49.4% 0 in
03:24 52.7 °F 34.7 °F 30 in ONO 14.5 mph 26 mph 50% 0 in
03:29 52.7 °F 34.5 °F 30 in ONO 14.7 mph 24.2 mph 50% 0 in
03:34 52.7 °F 34.7 °F 30 in Oeste 13.3 mph 24 mph 50% 0 in
03:39 52.7 °F 34.5 °F 30 in Oeste 13 mph 23.7 mph 50% 0 in
03:44 52.7 °F 34.5 °F 30 in Oeste 12 mph 25.6 mph 50% 0 in
03:49 52.5 °F 34.5 °F 30 in Oeste 11.8 mph 26 mph 50% 0 in
03:54 52.5 °F 34.3 °F 30 in Oeste 11.8 mph 30.1 mph 50% 0 in
03:59 52.7 °F 34.5 °F 30 in ONO 11.8 mph 30 mph 50% 0 in
04:04 52.5 °F 34.5 °F 30 in Oeste 15.7 mph 29 mph 50% 0 in
04:09 52.5 °F 34.3 °F 30 in Oeste 16.3 mph 23 mph 50% 0 in
04:14 52.3 °F 34.2 °F 30 in Oeste 14.1 mph 23 mph 50% 0 in
04:19 52.3 °F 34.3 °F 30 in Oeste 13.7 mph 26.1 mph 50.3% 0 in
04:24 52.2 °F 34.7 °F 30 in Oeste 13.7 mph 26.5 mph 51% 0 in
04:29 52.2 °F 34.5 °F 30 in Oeste 13.7 mph 29.7 mph 51% 0 in
04:34 52.2 °F 34.5 °F 30 in ONO 13.7 mph 30 mph 51% 0 in
04:39 52 °F 34.3 °F 30 in Oeste 13.7 mph 30 mph 51% 0 in
04:44 52 °F 34.3 °F 30 in Oeste 12.1 mph 22.5 mph 51% 0 in
04:49 52 °F 34.3 °F 30 in Oeste 11.8 mph 23 mph 51% 0 in
04:54 51.8 °F 34.2 °F 30 in Oeste 11.8 mph 21.5 mph 51% 0 in
04:59 52 °F 34.3 °F 30 in ONO 11.8 mph 23 mph 51% 0 in
05:04 52.2 °F 34.3 °F 30 in ONO 12.8 mph 27.9 mph 50.4% 0 in
05:09 52.2 °F 34.2 °F 30 in ONO 13 mph 28.8 mph 50% 0 in
05:14 52.3 °F 34.2 °F 30 in ONO 16.2 mph 32.4 mph 50% 0 in
05:19 52.3 °F 34.2 °F 30 in ONO 16.8 mph 32.2 mph 50% 0 in
05:24 52.5 °F 34 °F 30 in ONO 17.6 mph 31.1 mph 49.3% 0 in
05:29 52.5 °F 34 °F 30 in ONO 17.8 mph 31 mph 49% 0 in
05:34 52.5 °F 34 °F 30 in ONO 17.5 mph 27.9 mph 49% 0 in
05:39 52.5 °F 34 °F 30 in ONO 17.5 mph 28 mph 49% 0 in
05:44 52.5 °F 34 °F 30 in ONO 15.9 mph 25 mph 49% 0 in
05:49 52.3 °F 34 °F 30 in ONO 15.6 mph 24 mph 49.6% 0 in
05:54 52.2 °F 34.2 °F 30 in ONO 11.5 mph 18 mph 50% 0 in
05:59 52.2 °F 34.2 °F 29.9 in ONO 10.7 mph 12 mph 50% 0 in
06:04 52.2 °F 34.2 °F 29.9 in Oeste 7.1 mph 11.8 mph 50% 0 in
06:09 52.2 °F 34.2 °F 30 in SSO 5.4 mph 12 mph 50% 0 in
06:14 52 °F 34 °F 30 in SO 4.3 mph 8.1 mph 50% 0 in
06:19 52 °F 34 °F 30 in SSO 3.6 mph 9.2 mph 50% 0 in
06:24 52.2 °F 34 °F 30 in SO 4.3 mph 9.7 mph 49.7% 0 in
06:29 52.2 °F 34 °F 30 in Oeste 4.7 mph 12.5 mph 49.8% 0 in
06:34 52.3 °F 33.8 °F 30 in Oeste 5 mph 13 mph 49.2% 0 in
06:39 52.3 °F 33.6 °F 30 in Oeste 5.2 mph 12.7 mph 49% 0 in
06:44 52.5 °F 33.8 °F 30 in OSO 5.8 mph 13 mph 49% 0 in
06:49 52.3 °F 34 °F 30 in Oeste 6.2 mph 8.5 mph 49.5% 0 in
06:54 52.3 °F 34.2 °F 30 in ONO 5 mph 9 mph 50% 0 in
06:59 52.3 °F 34.2 °F 30 in Oeste 4.3 mph 10.4 mph 50% 0 in
07:04 52.3 °F 34.2 °F 30 in Oeste 4.5 mph 10 mph 50% 0 in
07:09 52.5 °F 34.3 °F 30 in Oeste 4.7 mph 13.5 mph 50% 0 in
07:14 52.7 °F 34.5 °F 30 in Oeste 5.8 mph 15.2 mph 50% 0 in
07:19 52.9 °F 34.3 °F 30 in Oeste 6.4 mph 15 mph 49.4% 0 in
07:24 52.9 °F 34.2 °F 30 in Oeste 6.4 mph 13 mph 49% 0 in
07:29 52.9 °F 34.2 °F 29.9 in Oeste 6.4 mph 10 mph 49% 0 in
07:34 52.9 °F 34.2 °F 29.9 in Oeste 6.3 mph 13.8 mph 49% 0 in
07:39 53.1 °F 34.3 °F 30 in Oeste 6.2 mph 14 mph 49% 0 in
07:44 53.2 °F 34.5 °F 30 in ONO 7.1 mph 20.1 mph 49% 0 in
07:49 53.4 °F 34.7 °F 30 in Oeste 7.6 mph 21 mph 49% 0 in
07:54 53.4 °F 34.7 °F 30 in ONO 8.1 mph 16 mph 49% 0 in
07:59 53.4 °F 34.7 °F 30 in Oeste 8.5 mph 14 mph 49% 0 in
08:04 53.4 °F 34.7 °F 30 in Oeste 6.5 mph 19 mph 49% 0 in
08:09 53.4 °F 34.7 °F 30 in OSO 5.4 mph 21.9 mph 49% 0 in
08:14 53.8 °F 34.9 °F 30 in Oeste 7.1 mph 22 mph 48.8% 0 in
08:19 54 °F 34.9 °F 30 in Oeste 8.1 mph 19 mph 48% 0 in
08:24 54.3 °F 34.9 °F 30 in Oeste 9.1 mph 16 mph 47.7% 0 in
08:29 54.3 °F 34.9 °F 30 in ONO 9.7 mph 16.1 mph 47.9% 0 in
08:34 54.3 °F 35.1 °F 30 in ONO 8.9 mph 16 mph 48% 0 in
08:39 54.5 °F 34.9 °F 30 in ONO 8.5 mph 17.3 mph 47.5% 0 in
08:44 54.7 °F 34.9 °F 30 in ONO 9.6 mph 17 mph 47% 0 in
08:49 54.9 °F 34.9 °F 30 in ONO 10.2 mph 16.1 mph 46.7% 0 in
08:54 55 °F 34.7 °F 30 in ONO 9.6 mph 16 mph 46% 0 in
08:59 55 °F 35.1 °F 30 in NO 9.2 mph 13 mph 46.7% 0 in
09:04 55 °F 35.2 °F 30 in Oeste 7.3 mph 13.8 mph 47% 0 in
09:09 55 °F 35.2 °F 30 in Oeste 6.2 mph 17.3 mph 47% 0 in
09:14 55.2 °F 35.2 °F 30 in Oeste 7.8 mph 20.1 mph 47% 0 in
09:19 55.2 °F 35.4 °F 30 in Oeste 8.7 mph 21 mph 47% 0 in
09:24 55.6 °F 35.6 °F 30 in Oeste 9 mph 21 mph 46.9% 0 in
09:29 55.6 °F 35.8 °F 30 in Oeste 9.2 mph 16 mph 47% 0 in
09:34 55.6 °F 35.6 °F 30 in OSO 8.9 mph 19.6 mph 46.9% 0 in
09:39 55.8 °F 35.8 °F 30 in Oeste 8.7 mph 20 mph 47% 0 in
09:44 55.9 °F 36 °F 30 in OSO 8 mph 19.2 mph 47% 0 in
09:49 56.1 °F 35.6 °F 30 in OSO 7.6 mph 20 mph 46.1% 0 in
09:54 56.1 °F 35.6 °F 30 in Oeste 8.3 mph 20 mph 46% 0 in
09:59 56.3 °F 35.8 °F 30 in Oeste 8.7 mph 15 mph 46% 0 in
10:04 56.5 °F 36 °F 30 in Oeste 8.3 mph 14 mph 46.1% 0 in
10:09 56.7 °F 36.3 °F 30 in OSO 8.1 mph 14 mph 46.4% 0 in
10:14 56.8 °F 36.3 °F 30 in OSO 6.7 mph 14.5 mph 46% 0 in
10:19 56.8 °F 36.3 °F 30 in Oeste 5.9 mph 15 mph 46% 0 in
10:24 56.8 °F 36.3 °F 30 in OSO 6.8 mph 15 mph 46% 0 in
10:29 56.8 °F 36.3 °F 30 in Oeste 7.4 mph 15 mph 46% 0 in
10:34 56.8 °F 36.3 °F 30 in Oeste 8.2 mph 15 mph 46% 0 in
10:39 56.8 °F 36.3 °F 30 in Oeste 8.7 mph 19.6 mph 46% 0 in
10:44 56.8 °F 36.3 °F 30 in OSO 8.6 mph 20 mph 46% 0 in
10:49 57 °F 36.1 °F 30 in OSO 8.5 mph 16.1 mph 45.4% 0 in
10:54 57.2 °F 36.5 °F 30 in OSO 8.3 mph 19 mph 45.8% 0 in
10:59 57.4 °F 36.5 °F 30 in Oeste 8.1 mph 19 mph 45.5% 0 in
11:04 57.2 °F 36.7 °F 30 in Oeste 7.8 mph 17.3 mph 45.9% 0 in
11:09 57.4 °F 36.7 °F 30 in ONO 7.6 mph 17.3 mph 46% 0 in
11:14 57.4 °F 36.5 °F 29.9 in OSO 8.6 mph 18.4 mph 45.6% 0 in
11:19 57.6 °F 36.5 °F 29.9 in Oeste 9.2 mph 19.2 mph 45.4% 0 in
11:24 57.6 °F 36.5 °F 29.9 in SO 9.8 mph 20 mph 45% 0 in
11:29 57.7 °F 36.7 °F 29.9 in OSO 10.2 mph 20 mph 45.5% 0 in
11:34 57.7 °F 36.7 °F 29.9 in OSO 10.1 mph 19.7 mph 45.3% 0 in
11:39 57.7 °F 36.7 °F 29.9 in OSO 10 mph 20 mph 45.2% 0 in
11:44 57.9 °F 36.9 °F 29.9 in OSO 10.9 mph 19 mph 45.4% 0 in
11:49 57.9 °F 36.7 °F 29.9 in OSO 11.4 mph 23 mph 45% 0 in
11:54 57.9 °F 37 °F 29.9 in OSO 10.6 mph 23 mph 45.4% 0 in
11:59 58.1 °F 36.9 °F 29.9 in Oeste 10.2 mph 19 mph 45% 0 in
12:04 58.3 °F 37.6 °F 29.9 in Oeste 8.8 mph 17 mph 46% 0 in
12:09 58.5 °F 37.6 °F 29.9 in OSO 8.1 mph 15.6 mph 45.8% 0 in
12:14 58.6 °F 37.4 °F 29.9 in OSO 8.3 mph 16.1 mph 45.2% 0 in
12:19 58.6 °F 37.4 °F 29.9 in Oeste 8.5 mph 15.2 mph 45.2% 0 in
12:24 58.8 °F 37.6 °F 29.9 in OSO 8.9 mph 15 mph 45% 0 in
12:29 59.2 °F 37.9 °F 29.9 in OSO 9.2 mph 14 mph 45% 0 in
12:34 59.5 °F 37.9 °F 29.9 in OSO 7.7 mph 14 mph 44.6% 0 in
12:39 59.7 °F 37.8 °F 29.9 in OSO 6.9 mph 17.3 mph 44% 0 in
12:44 59.7 °F 37.8 °F 29.9 in OSO 7.9 mph 17 mph 44% 0 in
12:49 60.1 °F 37.9 °F 29.9 in OSO 8.5 mph 13 mph 44% 0 in
12:54 60.1 °F 37.8 °F 29.9 in Oeste 8 mph 20.8 mph 43.4% 0 in
12:59 60.4 °F 38.1 °F 29.9 in ONO 7.6 mph 21 mph 43.6% 0 in
13:04 60.6 °F 37.9 °F 29.9 in Oeste 10.7 mph 23 mph 42.9% 0 in
13:09 60.8 °F 37.6 °F 29.9 in ONO 12.3 mph 24.6 mph 42.2% 0 in
13:14 61.2 °F 37.8 °F 29.9 in Oeste 12.4 mph 25 mph 42% 0 in
13:19 61.2 °F 37.9 °F 29.9 in Oeste 12.5 mph 22.3 mph 41.9% 0 in
13:24 61.3 °F 37.6 °F 29.9 in Oeste 12.4 mph 22 mph 41.2% 0 in
13:29 61.3 °F 37.4 °F 29.9 in ONO 12.3 mph 21 mph 41% 0 in
13:34 61.5 °F 37.6 °F 29.9 in ONO 11.2 mph 17.3 mph 41% 0 in
13:39 62.1 °F 37.8 °F 29.9 in Oeste 10.7 mph 17 mph 40.7% 0 in
13:44 62.1 °F 37.6 °F 29.9 in Oeste 10.1 mph 20.8 mph 40% 0 in
13:49 62.2 °F 37.4 °F 29.9 in Oeste 9.7 mph 25.6 mph 39.6% 0 in
13:54 62.2 °F 37.4 °F 29.9 in Oeste 11 mph 26 mph 39.6% 0 in
13:59 62.4 °F 37.6 °F 29.9 in ONO 11.8 mph 20 mph 39.5% 0 in
14:04 62.4 °F 37.2 °F 29.9 in Oeste 10.6 mph 21.3 mph 39% 0 in
14:09 62.4 °F 37.4 °F 29.9 in Oeste 10 mph 21 mph 39.3% 0 in
14:14 62.8 °F 37.6 °F 29.9 in ONO 10.9 mph 21 mph 39.3% 0 in
14:19 63 °F 37.4 °F 29.9 in ONO 11.4 mph 21.9 mph 38.8% 0 in
14:24 63 °F 37.6 °F 29.9 in ONO 10.9 mph 22 mph 39% 0 in
14:29 62.8 °F 37.4 °F 29.9 in ONO 10.7 mph 24.6 mph 39% 0 in
14:34 62.8 °F 37.6 °F 29.9 in ONO 11 mph 25 mph 39.2% 0 in
14:39 62.8 °F 37.8 °F 29.9 in ONO 11.2 mph 16 mph 39.5% 0 in
14:44 63 °F 38.1 °F 29.9 in NO 8.1 mph 12.3 mph 39.9% 0 in
14:49 63 °F 37.9 °F 29.9 in ONO 6.2 mph 21.9 mph 39.6% 0 in
14:54 62.6 °F 37.9 °F 29.9 in ONO 7.8 mph 22 mph 40% 0 in
14:59 62.4 °F 37.9 °F 29.9 in Oeste 8.7 mph 24.6 mph 40.2% 0 in
15:04 62.6 °F 37.9 °F 29.9 in ONO 9.4 mph 25 mph 40% 0 in
15:09 62.8 °F 38.5 °F 29.9 in ONO 9.7 mph 24 mph 40.7% 0 in
15:14 62.8 °F 38.7 °F 29.9 in ONO 10 mph 21 mph 41% 0 in
15:19 63 °F 38.8 °F 29.9 in Oeste 10.2 mph 20 mph 41% 0 in
15:24 63 °F 38.8 °F 29.9 in OSO 9.1 mph 19 mph 41% 0 in
15:29 63 °F 38.8 °F 29.8 in Oeste 8.5 mph 18.4 mph 41% 0 in
15:34 63 °F 39 °F 29.8 in ONO 7.8 mph 16.8 mph 41% 0 in
15:39 63.1 °F 39 °F 29.8 in Oeste 7.4 mph 17.3 mph 41% 0 in
15:44 63.3 °F 39.2 °F 29.8 in Oeste 7.5 mph 15 mph 41% 0 in
15:49 63.5 °F 39.4 °F 29.8 in Oeste 7.6 mph 26.3 mph 41% 0 in
15:54 63.7 °F 39.6 °F 29.8 in Oeste 8.2 mph 26.5 mph 41% 0 in
15:59 63.7 °F 39.6 °F 29.8 in ONO 8.5 mph 25.3 mph 41% 0 in
16:04 63.9 °F 39.6 °F 29.8 in ONO 10.6 mph 25 mph 41% 0 in
16:09 63.9 °F 39.7 °F 29.8 in ONO 11.8 mph 26.8 mph 41% 0 in
16:14 64 °F 39.7 °F 29.8 in ONO 12.2 mph 27 mph 41% 0 in
16:19 64.2 °F 39.9 °F 29.8 in ONO 12.5 mph 25 mph 41% 0 in
16:24 64.2 °F 40.1 °F 29.8 in Oeste 10.4 mph 18.4 mph 40.9% 0 in
16:29 64.4 °F 39.6 °F 29.8 in ONO 9.2 mph 24.2 mph 40.1% 0 in
16:34 64.2 °F 39.4 °F 29.8 in Oeste 11.2 mph 27.6 mph 40% 0 in
16:39 64.2 °F 39.4 °F 29.8 in ONO 12.3 mph 28 mph 40% 0 in
16:44 64 °F 39.7 °F 29.8 in ONO 12 mph 23 mph 40.9% 0 in
16:49 63.9 °F 39.7 °F 29.8 in ONO 11.8 mph 24.2 mph 41% 0 in
16:54 63.9 °F 39.9 °F 29.8 in ONO 13 mph 24 mph 41.5% 0 in
16:59 63.9 °F 40.3 °F 29.8 in ONO 13.7 mph 22 mph 42% 0 in
17:04 63.7 °F 40.1 °F 29.8 in ONO 11.7 mph 24.2 mph 42% 0 in
17:09 63.7 °F 40.5 °F 29.8 in ONO 10.7 mph 24 mph 42.5% 0 in
17:14 63.5 °F 40.6 °F 29.8 in ONO 11.1 mph 19 mph 42.9% 0 in
17:19 63.3 °F 40.5 °F 29.8 in ONO 11.4 mph 21.3 mph 43% 0 in
17:24 63.3 °F 40.5 °F 29.8 in ONO 10.5 mph 21 mph 43% 0 in
17:29 63.1 °F 40.3 °F 29.8 in ONO 10 mph 17 mph 43% 0 in
17:34 63.1 °F 40.5 °F 29.8 in ONO 10.1 mph 21.5 mph 43.1% 0 in
17:39 63.3 °F 40.5 °F 29.8 in ONO 10.2 mph 26.5 mph 43.2% 0 in
17:44 63.3 °F 40.6 °F 29.8 in ONO 12.2 mph 26 mph 43.4% 0 in
17:49 63.1 °F 41 °F 29.8 in ONO 13.5 mph 23 mph 44% 0 in
17:54 63.1 °F 40.8 °F 29.8 in ONO 12.9 mph 22 mph 44% 0 in
17:59 63.1 °F 41 °F 29.8 in ONO 12.5 mph 22.5 mph 44.3% 0 in
18:04 63.1 °F 41.4 °F 29.8 in ONO 12.8 mph 23 mph 45% 0 in
18:09 63 °F 41.4 °F 29.8 in Oeste 13 mph 23 mph 45% 0 in
18:14 63 °F 41.4 °F 29.8 in Oeste 11.1 mph 17 mph 45% 0 in
18:19 63 °F 41.7 °F 29.8 in ONO 10 mph 18.4 mph 45.8% 0 in
18:24 63 °F 41.7 °F 29.9 in Oeste 10.1 mph 18 mph 46% 0 in
18:29 63 °F 41.7 °F 29.9 in Oeste 10.2 mph 25.3 mph 46% 0 in
18:34 63 °F 41.7 °F 29.9 in Oeste 9.3 mph 25.3 mph 46% 0 in
18:39 62.8 °F 42.3 °F 29.9 in Oeste 8.7 mph 16.8 mph 46.9% 0 in
18:44 62.8 °F 42.3 °F 29.9 in Oeste 8.6 mph 17.3 mph 47% 0 in
18:49 62.6 °F 42.3 °F 29.9 in Oeste 8.5 mph 17 mph 47.3% 0 in
18:54 62.4 °F 42.4 °F 29.9 in Oeste 7.8 mph 13 mph 48% 0 in
18:59 62.4 °F 42.4 °F 29.9 in ONO 7.4 mph 21.3 mph 48% 0 in
19:04 62.4 °F 42.6 °F 29.9 in Oeste 8.9 mph 21.9 mph 48% 0 in
19:09 62.4 °F 42.6 °F 29.9 in Oeste 9.7 mph 22 mph 48% 0 in
19:14 62.6 °F 42.6 °F 29.9 in Oeste 10.3 mph 22 mph 48% 0 in
19:19 62.6 °F 42.6 °F 29.9 in ONO 10.7 mph 25.3 mph 48% 0 in
19:24 62.6 °F 42.6 °F 29.9 in Oeste 11.1 mph 25 mph 48% 0 in
19:29 62.4 °F 42.6 °F 29.9 in ONO 11.4 mph 19 mph 48.2% 0 in
19:34 62.4 °F 43 °F 29.9 in ONO 10.9 mph 19.6 mph 49% 0 in
19:39 62.4 °F 43 °F 29.9 in NO 10.7 mph 26.5 mph 49% 0 in
19:44 62.2 °F 42.8 °F 29.9 in ONO 11.1 mph 26 mph 49% 0 in
19:49 62.2 °F 42.8 °F 29.9 in ONO 11.4 mph 23 mph 49% 0 in
19:54 62.1 °F 43 °F 29.9 in ONO 12.1 mph 23 mph 49.6% 0 in
19:59 61.9 °F 43 °F 29.9 in ONO 12.5 mph 21 mph 50% 0 in
20:04 61.5 °F 43.2 °F 29.9 in ONO 11.4 mph 19 mph 50.7% 0 in
20:09 61.5 °F 43.2 °F 29.9 in ONO 10.7 mph 19.6 mph 51% 0 in
20:14 61.5 °F 43.2 °F 29.9 in ONO 11.6 mph 21.3 mph 51% 0 in
20:19 61.5 °F 43.2 °F 29.9 in ONO 12.3 mph 21 mph 51% 0 in
20:24 61.3 °F 43.2 °F 29.9 in ONO 12.3 mph 19 mph 51% 0 in
20:29 61.3 °F 43 °F 29.9 in ONO 12.3 mph 25.3 mph 51% 0 in
20:34 61.3 °F 43 °F 29.9 in ONO 12 mph 25 mph 51% 0 in
20:39 61.5 °F 43.2 °F 29.9 in ONO 11.8 mph 21 mph 51% 0 in
20:44 61.3 °F 43.3 °F 29.9 in ONO 12.1 mph 21 mph 51.5% 0 in
20:49 61.3 °F 43.5 °F 29.9 in ONO 12.3 mph 20 mph 52% 0 in
20:54 61.2 °F 43.3 °F 29.9 in ONO 11.6 mph 22.3 mph 52% 0 in
20:59 61.2 °F 43.7 °F 29.9 in ONO 11.2 mph 23 mph 52.9% 0 in
21:04 61 °F 43.7 °F 29.9 in ONO 12.4 mph 23 mph 53% 0 in
21:09 60.8 °F 43.7 °F 29.9 in ONO 13 mph 21 mph 53% 0 in
21:14 60.8 °F 43.7 °F 29.9 in ONO 12.2 mph 24.2 mph 53.1% 0 in
21:19 60.6 °F 43.9 °F 29.9 in ONO 11.8 mph 24 mph 54% 0 in
21:24 60.6 °F 43.9 °F 29.9 in ONO 10.8 mph 26.5 mph 54% 0 in
21:29 60.4 °F 43.7 °F 29.9 in ONO 10.2 mph 26 mph 54% 0 in
21:34 60.4 °F 44.1 °F 29.9 in ONO 10.5 mph 23 mph 54.8% 0 in
21:39 60.4 °F 44.2 °F 29.9 in ONO 10.7 mph 23 mph 55% 0 in
21:44 60.3 °F 44.1 °F 29.9 in ONO 9.8 mph 16 mph 55% 0 in
21:49 60.3 °F 44.1 °F 29.9 in ONO 9.2 mph 16.1 mph 55% 0 in
21:54 60.3 °F 44.4 °F 29.9 in NO 8.5 mph 17.3 mph 56% 0 in
21:59 60.3 °F 44.4 °F 29.9 in ONO 8.1 mph 21.9 mph 56% 0 in
22:04 60.3 °F 44.4 °F 29.9 in ONO 9.8 mph 22 mph 56% 0 in
22:09 60.3 °F 44.4 °F 29.9 in ONO 10.7 mph 20 mph 56% 0 in
22:14 60.3 °F 44.4 °F 29.9 in ONO 10.1 mph 19 mph 56% 0 in
22:19 60.1 °F 44.2 °F 29.9 in ONO 9.7 mph 18 mph 56% 0 in
22:24 60.1 °F 44.2 °F 29.9 in Oeste 9.1 mph 15.2 mph 56% 0 in
22:29 60.1 °F 44.2 °F 29.9 in Oeste 8.7 mph 15 mph 56% 0 in
22:34 59.7 °F 44.1 °F 29.9 in Oeste 7.6 mph 13.8 mph 56% 0 in
22:39 59.7 °F 44.1 °F 29.9 in Oeste 6.9 mph 14 mph 56% 0 in
22:44 59.7 °F 44.1 °F 29.9 in Oeste 6.6 mph 13 mph 56% 0 in
22:49 59.7 °F 44.1 °F 29.9 in ONO 6.4 mph 13 mph 56% 0 in
22:54 59.5 °F 43.5 °F 29.9 in Oeste 5.8 mph 10.4 mph 55.3% 0 in
22:59 59.5 °F 43.3 °F 29.9 in Oeste 5.4 mph 10 mph 55% 0 in
23:04 59.5 °F 43.3 °F 29.9 in Oeste 6 mph 14 mph 55% 0 in
23:09 59.4 °F 43.2 °F 29.9 in ONO 6.2 mph 14 mph 55% 0 in
23:14 59.4 °F 43.2 °F 29.9 in Oeste 6.6 mph 13 mph 55% 0 in
23:19 59.2 °F 43 °F 29.9 in ONO 6.9 mph 18.4 mph 55% 0 in
23:24 59.2 °F 43 °F 29.9 in ONO 8.1 mph 18 mph 55% 0 in
23:29 59.2 °F 43 °F 29.9 in ONO 8.7 mph 16.1 mph 55% 0 in
23:34 59 °F 42.8 °F 29.9 in ONO 8.7 mph 16 mph 55% 0 in
23:39 58.8 °F 42.6 °F 29.9 in ONO 8.7 mph 14 mph 55% 0 in
23:44 58.6 °F 42.6 °F 29.9 in ONO 8 mph 14 mph 55.3% 0 in
23:49 58.5 °F 42.8 °F 29.9 in ONO 7.6 mph 15.2 mph 55.8% 0 in
23:54 58.6 °F 42.4 °F 29.9 in ONO 8.6 mph 18.4 mph 55% 0 in
23:59 58.6 °F 42.4 °F 29.9 in ONO 9.2 mph 18 mph 55% 0 in
Murcia-Puente Tocinos, España
Compliments of Weather Underground - 3.5 mb

La estación de MeteoMurcia.com, publica sus datos en los siguientes proyectos:

Weather Underground PWS IMURCIAP2 Meteoclimatic www.awekas.at

W3Counter
Web Analytics